createdAt,value
2016-12-28T00:00:16.401Z,84.29
2016-12-28T00:00:42.550Z,84.48
2016-12-28T00:01:08.665Z,84.39
2016-12-28T00:01:34.778Z,84.67
2016-12-28T00:02:00.876Z,84.67
2016-12-28T00:02:27.004Z,84.86
2016-12-28T00:02:53.115Z,84.58
2016-12-28T00:03:19.226Z,84.58
2016-12-28T00:03:45.346Z,84.29
2016-12-28T00:04:11.513Z,84.48
2016-12-28T00:04:37.618Z,84.1
2016-12-28T00:05:03.735Z,84.39
2016-12-28T00:05:29.858Z,84.29
2016-12-28T00:05:55.963Z,84.01
2016-12-28T00:06:22.078Z,84.67
2016-12-28T00:06:48.189Z,84.48
2016-12-28T00:07:14.312Z,84.34
2016-12-28T00:07:40.431Z,84.91
2016-12-28T00:08:06.532Z,84.44
2016-12-28T00:08:32.652Z,85.15
2016-12-28T00:08:58.767Z,85.2
2016-12-28T00:09:24.873Z,84.58
2016-12-28T00:09:50.988Z,84.86
2016-12-28T00:10:17.110Z,84.86
2016-12-28T00:10:43.221Z,85.05
2016-12-28T00:11:09.335Z,84.86
2016-12-28T00:11:35.457Z,84.48
2016-12-28T00:12:01.562Z,84.67
2016-12-28T00:12:27.662Z,85.05
2016-12-28T00:12:53.792Z,85.43
2016-12-28T00:13:19.902Z,84.86
2016-12-28T00:13:46.013Z,85.05
2016-12-28T00:14:12.129Z,85.24
2016-12-28T00:14:38.242Z,85.24
2016-12-28T00:15:04.353Z,84.77
2016-12-28T00:15:30.474Z,84.48
2016-12-28T00:15:56.596Z,84.67
2016-12-28T00:16:22.700Z,84.95
2016-12-28T00:16:48.815Z,84.95
2016-12-28T00:17:14.939Z,84.2
2016-12-28T00:17:41.055Z,84.29
2016-12-28T00:18:07.170Z,84.48
2016-12-28T00:18:33.271Z,84.48
2016-12-28T00:18:59.390Z,84.2
2016-12-28T00:19:25.509Z,84.48
2016-12-28T00:19:51.614Z,84.2
2016-12-28T00:20:17.728Z,84.01
2016-12-28T00:20:43.848Z,84.1
2016-12-28T00:21:09.958Z,84.1
2016-12-28T00:21:36.074Z,84.29
2016-12-28T00:22:02.194Z,84.29
2016-12-28T00:22:28.300Z,84.29
2016-12-28T00:22:54.409Z,84.48
2016-12-28T00:23:20.521Z,84.48
2016-12-28T00:23:46.635Z,84.1
2016-12-28T00:24:12.762Z,85.05
2016-12-28T00:24:38.864Z,84.29
2016-12-28T00:25:04.978Z,84.77
2016-12-28T00:25:31.098Z,84.86
2016-12-28T00:25:57.204Z,84.67
2016-12-28T00:26:23.311Z,84.67
2016-12-28T00:26:49.433Z,84.67
2016-12-28T00:27:15.545Z,84.67
2016-12-28T00:27:41.651Z,84.95
2016-12-28T00:28:07.769Z,84.95
2016-12-28T00:28:33.884Z,84.77
2016-12-28T00:29:00.002Z,84.95
2016-12-28T00:29:26.113Z,84.86
2016-12-28T00:29:52.214Z,84.86
2016-12-28T00:30:18.345Z,84.86
2016-12-28T00:30:44.451Z,84.77
2016-12-28T00:31:10.560Z,84.86
2016-12-28T00:31:36.680Z,84.77
2016-12-28T00:32:02.797Z,84.86
2016-12-28T00:32:28.904Z,84.77
2016-12-28T00:32:55.019Z,84.29
2016-12-28T00:33:21.139Z,84.48
2016-12-28T00:33:47.243Z,84.58
2016-12-28T00:34:13.359Z,84.29
2016-12-28T00:34:39.516Z,84.39
2016-12-28T00:35:05.633Z,84.29
2016-12-28T00:35:31.743Z,84.48
2016-12-28T00:35:57.853Z,84.48
2016-12-28T00:36:23.976Z,84.29
2016-12-28T00:36:50.098Z,84.48
2016-12-28T00:37:16.202Z,84.48
2016-12-28T00:37:42.316Z,84.29
2016-12-28T00:38:08.433Z,84.29
2016-12-28T00:38:34.543Z,84.29
2016-12-28T00:39:00.655Z,84.86
2016-12-28T00:39:26.783Z,84.77
2016-12-28T00:39:52.885Z,84.86
2016-12-28T00:40:19.010Z,84.48
2016-12-28T00:40:45.118Z,84.48
2016-12-28T00:41:11.235Z,84.67
2016-12-28T00:41:37.361Z,84.86
2016-12-28T00:42:03.465Z,84.67
2016-12-28T00:42:29.579Z,84.95
2016-12-28T00:42:55.728Z,84.67
2016-12-28T00:43:21.839Z,84.95
2016-12-28T00:43:47.948Z,85.43
2016-12-28T00:44:14.071Z,85.24
2016-12-28T00:44:40.181Z,85.24
2016-12-28T00:45:06.284Z,84.95
2016-12-28T00:45:32.409Z,85.43
2016-12-28T00:45:58.519Z,84.67
2016-12-28T00:46:24.639Z,84.48
2016-12-28T00:46:50.747Z,84.48
2016-12-28T00:47:16.851Z,84.86
2016-12-28T00:47:42.978Z,84.77
2016-12-28T00:48:09.090Z,84.77
2016-12-28T00:48:35.193Z,84.29
2016-12-28T00:49:01.310Z,84.29
2016-12-28T00:49:27.423Z,84.39
2016-12-28T00:49:53.528Z,84.39
2016-12-28T00:50:19.673Z,84.48
2016-12-28T00:50:45.797Z,84.48
2016-12-28T00:51:11.904Z,85.05
2016-12-28T00:51:38.046Z,84.48
2016-12-28T00:52:04.155Z,84.77
2016-12-28T00:52:30.275Z,85.05
2016-12-28T00:52:56.395Z,84.39
2016-12-28T00:53:22.500Z,84.39
2016-12-28T00:53:48.623Z,84.86
2016-12-28T00:54:14.742Z,84.77
2016-12-28T00:54:40.846Z,84.58
2016-12-28T00:55:06.965Z,84.2
2016-12-28T00:55:33.089Z,84.48
2016-12-28T00:55:59.192Z,85.15
2016-12-28T00:56:25.301Z,84.95
2016-12-28T00:56:51.429Z,84.48
2016-12-28T00:57:17.541Z,84.77
2016-12-28T00:57:43.643Z,84.95
2016-12-28T00:58:09.767Z,84.95
2016-12-28T00:58:35.877Z,84.67
2016-12-28T00:59:01.982Z,84.58
2016-12-28T00:59:28.106Z,84.95
2016-12-28T00:59:54.220Z,85.05
2016-12-28T01:00:20.327Z,85.05
2016-12-28T01:00:46.442Z,85.24
2016-12-28T01:01:12.565Z,84.95
2016-12-28T01:01:38.663Z,84.77
2016-12-28T01:02:04.780Z,84.29
2016-12-28T01:02:30.882Z,84.58
2016-12-28T01:02:57.007Z,84.58
2016-12-28T01:03:23.117Z,84.67
2016-12-28T01:03:49.224Z,84.29
2016-12-28T01:04:15.336Z,84.29
2016-12-28T01:04:41.461Z,84.29
2016-12-28T01:05:07.562Z,84.77
2016-12-28T01:05:33.675Z,85.24
2016-12-28T01:05:59.793Z,85.05
2016-12-28T01:06:25.898Z,84.58
2016-12-28T01:06:52.008Z,84.48
2016-12-28T01:07:18.134Z,84.58
2016-12-28T01:07:44.242Z,84.29
2016-12-28T01:08:10.361Z,84.67
2016-12-28T01:08:36.464Z,84.58
2016-12-28T01:09:02.614Z,84.29
2016-12-28T01:09:28.734Z,84.95
2016-12-28T01:09:54.836Z,84.77
2016-12-28T01:10:20.945Z,84.48
2016-12-28T01:10:47.069Z,84.48
2016-12-28T01:11:13.176Z,84.77
2016-12-28T01:11:39.284Z,85.24
2016-12-28T01:12:05.409Z,84.67
2016-12-28T01:12:31.524Z,84.67
2016-12-28T01:12:57.623Z,85.05
2016-12-28T01:13:23.745Z,85.05
2016-12-28T01:13:49.856Z,84.95
2016-12-28T01:14:15.971Z,84.95
2016-12-28T01:14:42.078Z,84.95
2016-12-28T01:15:08.177Z,85.43
2016-12-28T01:15:34.305Z,84.77
2016-12-28T01:16:00.420Z,84.86
2016-12-28T01:16:26.526Z,85.43
2016-12-28T01:16:52.649Z,85.05
2016-12-28T01:17:18.760Z,85.43
2016-12-28T01:17:44.872Z,85.43
2016-12-28T01:18:10.989Z,85.43
2016-12-28T01:18:37.117Z,85.05
2016-12-28T01:19:03.223Z,85.15
2016-12-28T01:19:29.336Z,84.95
2016-12-28T01:19:55.453Z,85.43
2016-12-28T01:20:21.593Z,85.15
2016-12-28T01:20:47.711Z,84.67
2016-12-28T01:21:13.813Z,85.2
2016-12-28T01:21:39.933Z,85.01
2016-12-28T01:22:06.060Z,85.11
2016-12-28T01:22:32.157Z,85.11
2016-12-28T01:22:58.274Z,85.24
2016-12-28T01:23:24.402Z,84.86
2016-12-28T01:23:50.506Z,85.05
2016-12-28T01:24:16.619Z,85.01
2016-12-28T01:24:42.736Z,85.24
2016-12-28T01:25:08.848Z,85.24
2016-12-28T01:25:34.968Z,85.53
2016-12-28T01:26:01.106Z,85.49
2016-12-28T01:26:27.222Z,85.15
2016-12-28T01:26:53.350Z,84.91
2016-12-28T01:27:19.450Z,85.11
2016-12-28T01:27:45.566Z,85.11
2016-12-28T01:28:11.691Z,85.05
2016-12-28T01:28:37.797Z,86
2016-12-28T01:29:03.900Z,85.43
2016-12-28T01:29:30.031Z,85.15
2016-12-28T01:29:56.140Z,85.05
2016-12-28T01:30:22.254Z,85.05
2016-12-28T01:30:48.360Z,85.43
2016-12-28T01:31:14.477Z,85.15
2016-12-28T01:31:40.592Z,86.1
2016-12-28T01:32:06.703Z,85.53
2016-12-28T01:32:32.802Z,85.24
2016-12-28T01:32:58.963Z,85.24
2016-12-28T01:33:25.075Z,84.86
2016-12-28T01:33:51.180Z,84.77
2016-12-28T01:34:17.308Z,85.24
2016-12-28T01:34:43.427Z,84.95
2016-12-28T01:35:09.563Z,84.86
2016-12-28T01:35:35.680Z,84.95
2016-12-28T01:36:01.787Z,84.82
2016-12-28T01:36:27.908Z,85.24
2016-12-28T01:36:54.021Z,84.91
2016-12-28T01:37:20.128Z,85.15
2016-12-28T01:37:46.250Z,85.34
2016-12-28T01:38:12.368Z,84.86
2016-12-28T01:38:38.470Z,85.2
2016-12-28T01:39:04.591Z,84.86
2016-12-28T01:39:30.714Z,84.91
2016-12-28T01:39:56.814Z,85.24
2016-12-28T01:40:22.926Z,85.05
2016-12-28T01:40:49.044Z,85.15
2016-12-28T01:41:15.147Z,85.05
2016-12-28T01:41:41.261Z,85.34
2016-12-28T01:42:07.408Z,85.2
2016-12-28T01:42:33.519Z,85.01
2016-12-28T01:42:59.622Z,84.91
2016-12-28T01:43:25.752Z,85.3
2016-12-28T01:43:51.864Z,85.58
2016-12-28T01:44:17.971Z,85.62
2016-12-28T01:44:44.091Z,85.49
2016-12-28T01:45:10.210Z,85.39
2016-12-28T01:45:36.314Z,85.58
2016-12-28T01:46:02.431Z,85.58
2016-12-28T01:46:28.551Z,85.39
2016-12-28T01:46:54.652Z,85.77
2016-12-28T01:47:20.766Z,86.34
2016-12-28T01:47:46.874Z,86.34
2016-12-28T01:48:12.993Z,85.68
2016-12-28T01:48:39.111Z,86.24
2016-12-28T01:49:05.212Z,86.34
2016-12-28T01:49:31.337Z,86.43
2016-12-28T01:49:57.462Z,86.15
2016-12-28T01:50:23.567Z,86.43
2016-12-28T01:50:49.679Z,86.15
2016-12-28T01:51:15.807Z,86.24
2016-12-28T01:51:41.912Z,85.96
2016-12-28T01:52:08.019Z,86.15
2016-12-28T01:52:34.135Z,86.63
2016-12-28T01:53:00.254Z,87.01
2016-12-28T01:53:26.368Z,87.01
2016-12-28T01:53:52.474Z,86.91
2016-12-28T01:54:18.582Z,86.91
2016-12-28T01:54:44.707Z,86.82
2016-12-28T01:55:10.810Z,87.01
2016-12-28T01:55:36.924Z,86.63
2016-12-28T01:56:03.042Z,86.91
2016-12-28T01:56:29.150Z,87.1
2016-12-28T01:56:55.255Z,87.19
2016-12-28T01:57:21.376Z,87.57
2016-12-28T01:57:47.486Z,87.19
2016-12-28T01:58:13.600Z,87.38
2016-12-28T01:58:39.707Z,87.29
2016-12-28T01:59:05.820Z,87.48
2016-12-28T01:59:31.939Z,87.29
2016-12-28T01:59:58.049Z,87.57
2016-12-28T02:00:24.197Z,87.29
2016-12-28T02:00:50.324Z,87.38
2016-12-28T02:01:16.442Z,87.57
2016-12-28T02:01:42.552Z,87.38
2016-12-28T02:02:08.672Z,87.57
2016-12-28T02:02:34.785Z,87.76
2016-12-28T02:03:00.895Z,87.91
2016-12-28T02:03:27.017Z,87.76
2016-12-28T02:03:53.121Z,87.76
2016-12-28T02:04:19.247Z,87.95
2016-12-28T02:04:45.358Z,87.48
2016-12-28T02:05:11.465Z,87.48
2016-12-28T02:05:37.588Z,87.48
2016-12-28T02:06:03.702Z,87.62
2016-12-28T02:06:29.808Z,87.76
2016-12-28T02:06:55.930Z,88.01
2016-12-28T02:07:22.051Z,87.57
2016-12-28T02:07:48.151Z,87.53
2016-12-28T02:08:14.265Z,87.82
2016-12-28T02:08:40.387Z,87.53
2016-12-28T02:09:06.493Z,87.72
2016-12-28T02:09:32.615Z,87.72
2016-12-28T02:09:58.719Z,87.62
2016-12-28T02:10:24.840Z,87.72
2016-12-28T02:10:50.960Z,88.57
2016-12-28T02:11:17.057Z,88.48
2016-12-28T02:11:43.170Z,88.57
2016-12-28T02:12:09.293Z,88.57
2016-12-28T02:12:35.393Z,88.76
2016-12-28T02:13:01.503Z,88.48
2016-12-28T02:13:27.623Z,88.57
2016-12-28T02:13:53.734Z,88.48
2016-12-28T02:14:19.842Z,88.39
2016-12-28T02:14:45.958Z,88.86
2016-12-28T02:15:12.076Z,88.29
2016-12-28T02:15:38.203Z,88.48
2016-12-28T02:16:04.307Z,88.29
2016-12-28T02:16:30.424Z,88.39
2016-12-28T02:16:56.544Z,88.57
2016-12-28T02:17:22.652Z,88.48
2016-12-28T02:17:48.755Z,88.67
2016-12-28T02:18:14.882Z,88.57
2016-12-28T02:18:41.029Z,88.48
2016-12-28T02:19:07.133Z,88.48
2016-12-28T02:19:33.253Z,88.1
2016-12-28T02:19:59.365Z,88.29
2016-12-28T02:20:25.484Z,88.29
2016-12-28T02:20:51.598Z,88.29
2016-12-28T02:21:17.703Z,88.29
2016-12-28T02:21:43.826Z,88.57
2016-12-28T02:22:09.943Z,88.39
2016-12-28T02:22:36.046Z,88.86
2016-12-28T02:23:02.164Z,88.48
2016-12-28T02:23:28.282Z,88.39
2016-12-28T02:23:54.387Z,88.39
2016-12-28T02:24:20.503Z,88.48
2016-12-28T02:24:46.624Z,88.67
2016-12-28T02:25:12.730Z,87.91
2016-12-28T02:25:38.847Z,88.48
2016-12-28T02:26:04.996Z,88.39
2016-12-28T02:26:31.100Z,88.48
2016-12-28T02:26:57.206Z,88.86
2016-12-28T02:27:23.328Z,88.39
2016-12-28T02:27:49.432Z,88.86
2016-12-28T02:28:15.539Z,88.48
2016-12-28T02:28:41.663Z,89.24
2016-12-28T02:29:07.773Z,88.95
2016-12-28T02:29:33.875Z,88.95
2016-12-28T02:29:59.999Z,88.86
2016-12-28T02:30:26.111Z,89.05
2016-12-28T02:30:52.270Z,89.43
2016-12-28T02:31:18.386Z,89.24
2016-12-28T02:31:44.484Z,89.33
2016-12-28T02:32:10.610Z,89.43
2016-12-28T02:32:36.724Z,90
2016-12-28T02:33:02.833Z,90.28
2016-12-28T02:33:28.952Z,89.53
2016-12-28T02:33:55.072Z,89.33
2016-12-28T02:34:21.173Z,90.09
2016-12-28T02:34:47.296Z,90.09
2016-12-28T02:35:13.416Z,89.14
2016-12-28T02:35:39.515Z,90.09
2016-12-28T02:36:05.627Z,90.28
2016-12-28T02:36:31.743Z,89.43
2016-12-28T02:36:57.852Z,90.28
2016-12-28T02:37:23.976Z,89.33
2016-12-28T02:37:50.077Z,89.53
2016-12-28T02:38:16.190Z,89.43
2016-12-28T02:38:42.316Z,89.33
2016-12-28T02:39:08.411Z,89.33
2016-12-28T02:39:34.533Z,90.19
2016-12-28T02:40:00.653Z,90.28
2016-12-28T02:40:26.756Z,89.33
2016-12-28T02:40:52.864Z,89.14
2016-12-28T02:41:18.988Z,90.28
2016-12-28T02:41:45.095Z,89.9
2016-12-28T02:42:11.204Z,90.09
2016-12-28T02:42:37.317Z,90.28
2016-12-28T02:43:03.436Z,90
2016-12-28T02:43:29.557Z,90.28
2016-12-28T02:43:55.659Z,89.9
2016-12-28T02:44:21.772Z,90.19
2016-12-28T02:44:47.896Z,89.33
2016-12-28T02:45:14.001Z,89.33
2016-12-28T02:45:40.105Z,90
2016-12-28T02:46:06.233Z,89.72
2016-12-28T02:46:32.346Z,89.62
2016-12-28T02:46:58.450Z,89.81
2016-12-28T02:47:24.570Z,90.09
2016-12-28T02:47:50.681Z,90
2016-12-28T02:48:16.793Z,90
2016-12-28T02:48:42.905Z,89.81
2016-12-28T02:49:09.012Z,89.24
2016-12-28T02:49:35.134Z,89.62
2016-12-28T02:50:01.243Z,89.53
2016-12-28T02:50:27.343Z,89.43
2016-12-28T02:50:53.469Z,89.24
2016-12-28T02:51:19.585Z,89.33
2016-12-28T02:51:45.684Z,89.24
2016-12-28T02:52:11.807Z,89.33
2016-12-28T02:52:37.925Z,89.81
2016-12-28T02:53:04.024Z,90.09
2016-12-28T02:53:30.139Z,90
2016-12-28T02:53:56.247Z,89.72
2016-12-28T02:54:22.366Z,89.81
2016-12-28T02:54:48.476Z,89.9
2016-12-28T02:55:14.578Z,89.72
2016-12-28T02:55:40.700Z,90.09
2016-12-28T02:56:06.825Z,90.09
2016-12-28T02:56:32.924Z,90
2016-12-28T02:56:59.040Z,89.9
2016-12-28T02:57:25.160Z,89.9
2016-12-28T02:57:51.263Z,90
2016-12-28T02:58:17.379Z,89.24
2016-12-28T02:58:43.503Z,89.24
2016-12-28T02:59:09.610Z,89.24
2016-12-28T02:59:35.726Z,89.43
2016-12-28T03:00:01.832Z,89.33
2016-12-28T03:00:27.952Z,90
2016-12-28T03:00:54.066Z,90.28
2016-12-28T03:01:20.169Z,90.28
2016-12-28T03:01:46.279Z,89.43
2016-12-28T03:02:12.403Z,89.24
2016-12-28T03:02:38.506Z,89.24
2016-12-28T03:03:04.613Z,89.24
2016-12-28T03:03:30.734Z,89.14
2016-12-28T03:03:56.844Z,89.33
2016-12-28T03:04:22.944Z,89.29
2016-12-28T03:04:49.078Z,89.62
2016-12-28T03:05:15.214Z,89.53
2016-12-28T03:05:41.329Z,89.29
2016-12-28T03:06:07.435Z,90.28
2016-12-28T03:06:33.534Z,89.9
2016-12-28T03:06:59.662Z,89.95
2016-12-28T03:07:25.779Z,89.81
2016-12-28T03:07:51.882Z,90.05
2016-12-28T03:08:18.004Z,90.28
2016-12-28T03:08:44.121Z,89.33
2016-12-28T03:09:10.228Z,89.24
2016-12-28T03:09:36.344Z,89.29
2016-12-28T03:10:02.467Z,90.05
2016-12-28T03:10:28.574Z,90.24
2016-12-28T03:10:54.718Z,89.81
2016-12-28T03:11:20.834Z,89.76
2016-12-28T03:11:46.941Z,89.76
2016-12-28T03:12:13.052Z,89.86
2016-12-28T03:12:39.178Z,89.62
2016-12-28T03:13:05.307Z,89.62
2016-12-28T03:13:31.416Z,89.86
2016-12-28T03:13:57.536Z,90.09
2016-12-28T03:14:23.649Z,89.67
2016-12-28T03:14:49.746Z,89.48
2016-12-28T03:15:15.871Z,89.86
2016-12-28T03:15:41.987Z,89.86
2016-12-28T03:16:08.095Z,90.05
2016-12-28T03:16:34.204Z,90.05
2016-12-28T03:17:00.313Z,89.67
2016-12-28T03:17:26.435Z,90.09
2016-12-28T03:17:52.542Z,90.09
2016-12-28T03:18:18.642Z,89.95
2016-12-28T03:18:44.765Z,89.9
2016-12-28T03:19:10.873Z,90.09
2016-12-28T03:19:36.979Z,89.39
2016-12-28T03:20:03.097Z,89.43
2016-12-28T03:20:29.218Z,90.05
2016-12-28T03:20:55.319Z,90.05
2016-12-28T03:21:21.464Z,89.86
2016-12-28T03:21:47.573Z,90.05
2016-12-28T03:22:13.690Z,89.39
2016-12-28T03:22:39.804Z,90.05
2016-12-28T03:23:05.909Z,90.05
2016-12-28T03:23:32.026Z,89.86
2016-12-28T03:23:58.152Z,89.95
2016-12-28T03:24:24.252Z,89.67
2016-12-28T03:24:50.367Z,89.86
2016-12-28T03:25:16.490Z,89.86
2016-12-28T03:25:42.596Z,89.95
2016-12-28T03:26:08.710Z,89.29
2016-12-28T03:26:34.829Z,89.58
2016-12-28T03:27:00.938Z,89.95
2016-12-28T03:27:27.055Z,89.95
2016-12-28T03:27:53.159Z,89.95
2016-12-28T03:28:19.279Z,89.67
2016-12-28T03:28:45.400Z,90.05
2016-12-28T03:29:11.502Z,88.91
2016-12-28T03:29:37.608Z,89.86
2016-12-28T03:30:03.735Z,89.67
2016-12-28T03:30:29.835Z,89.58
2016-12-28T03:30:55.943Z,89.2
2016-12-28T03:31:22.061Z,89.39
2016-12-28T03:31:48.171Z,89.48
2016-12-28T03:32:14.280Z,89.86
2016-12-28T03:32:40.399Z,90.24
2016-12-28T03:33:06.504Z,91.09
2016-12-28T03:33:32.623Z,89.76
2016-12-28T03:33:58.724Z,90.05
2016-12-28T03:34:24.832Z,89.2
2016-12-28T03:34:50.955Z,89.67
2016-12-28T03:35:17.066Z,89.76
2016-12-28T03:35:43.166Z,89.86
2016-12-28T03:36:09.292Z,89.86
2016-12-28T03:36:35.456Z,89.48
2016-12-28T03:37:01.562Z,89.2
2016-12-28T03:37:27.675Z,89.76
2016-12-28T03:37:53.794Z,89.76
2016-12-28T03:38:19.907Z,89.86
2016-12-28T03:38:46.021Z,90.14
2016-12-28T03:39:12.155Z,89.86
2016-12-28T03:39:38.270Z,90.24
2016-12-28T03:40:04.391Z,90.14
2016-12-28T03:40:30.490Z,90.43
2016-12-28T03:40:56.607Z,90.43
2016-12-28T03:41:22.728Z,90.14
2016-12-28T03:41:48.826Z,90.24
2016-12-28T03:42:17.971Z,90.24
2016-12-28T03:42:44.096Z,90.43
2016-12-28T03:43:10.205Z,90.05
2016-12-28T03:43:36.340Z,90.05
2016-12-28T03:44:02.455Z,90.05
2016-12-28T03:44:28.571Z,90.33
2016-12-28T03:44:54.687Z,89.95
2016-12-28T03:45:20.790Z,90.33
2016-12-28T03:45:46.907Z,89.76
2016-12-28T03:46:13.030Z,90.71
2016-12-28T03:46:39.134Z,89.95
2016-12-28T03:47:05.245Z,90.05
2016-12-28T03:47:31.367Z,90.43
2016-12-28T03:47:57.473Z,90.24
2016-12-28T03:48:23.580Z,90.14
2016-12-28T03:48:49.711Z,89.86
2016-12-28T03:49:15.824Z,90.43
2016-12-28T03:49:41.940Z,90.24
2016-12-28T03:50:08.048Z,89.86
2016-12-28T03:50:34.161Z,90.52
2016-12-28T03:51:00.285Z,90.33
2016-12-28T03:51:26.388Z,90.24
2016-12-28T03:51:52.493Z,90.05
2016-12-28T03:52:18.620Z,89.67
2016-12-28T03:52:44.732Z,89.86
2016-12-28T03:53:10.842Z,90.33
2016-12-28T03:53:36.960Z,89.76
2016-12-28T03:54:03.074Z,90.14
2016-12-28T03:54:29.176Z,90.43
2016-12-28T03:54:55.294Z,89.67
2016-12-28T03:55:21.410Z,89.76
2016-12-28T03:55:47.514Z,89.76
2016-12-28T03:56:13.633Z,89.76
2016-12-28T03:56:39.752Z,90.33
2016-12-28T03:57:05.856Z,89.76
2016-12-28T03:57:31.960Z,89.95
2016-12-28T03:57:58.085Z,89.76
2016-12-28T03:58:24.192Z,90.14
2016-12-28T03:58:50.295Z,89.29
2016-12-28T03:59:16.414Z,89.95
2016-12-28T03:59:42.529Z,89.39
2016-12-28T04:00:08.668Z,90.14
2016-12-28T04:00:34.789Z,89.95
2016-12-28T04:01:00.897Z,90.33
2016-12-28T04:01:27.066Z,90.05
2016-12-28T04:01:53.175Z,90.14
2016-12-28T04:02:19.279Z,89.58
2016-12-28T04:02:45.409Z,89.58
2016-12-28T04:03:11.520Z,89.67
2016-12-28T04:03:37.622Z,89.58
2016-12-28T04:04:03.746Z,89.67
2016-12-28T04:04:29.860Z,90.24
2016-12-28T04:04:55.967Z,89.95
2016-12-28T04:05:22.089Z,89.48
2016-12-28T04:05:48.207Z,89.2
2016-12-28T04:06:14.312Z,89.2
2016-12-28T04:06:40.425Z,89.48
2016-12-28T04:07:06.531Z,89
2016-12-28T04:07:32.650Z,88.72
2016-12-28T04:07:58.767Z,89
2016-12-28T04:08:24.868Z,89
2016-12-28T04:08:50.987Z,88.81
2016-12-28T04:09:17.107Z,89.2
2016-12-28T04:09:43.212Z,88.53
2016-12-28T04:10:09.319Z,88.34
2016-12-28T04:10:35.437Z,88.43
2016-12-28T04:11:01.542Z,88.62
2016-12-28T04:11:27.652Z,88.57
2016-12-28T04:11:53.768Z,88.29
2016-12-28T04:12:19.880Z,88.2
2016-12-28T04:12:46.000Z,88.67
2016-12-28T04:13:12.103Z,88.39
2016-12-28T04:13:38.217Z,88.43
2016-12-28T04:14:04.343Z,88.34
2016-12-28T04:14:30.444Z,88.43
2016-12-28T04:14:56.561Z,88.72
2016-12-28T04:15:22.680Z,88.43
2016-12-28T04:15:48.791Z,88.81
2016-12-28T04:16:14.895Z,88.72
2016-12-28T04:16:41.015Z,89
2016-12-28T04:17:07.121Z,88.81
2016-12-28T04:17:33.239Z,88.81
2016-12-28T04:17:59.347Z,89
2016-12-28T04:18:25.453Z,89
2016-12-28T04:18:51.573Z,88.48
2016-12-28T04:19:17.682Z,88.67
2016-12-28T04:19:43.791Z,88.29
2016-12-28T04:20:09.911Z,88.53
2016-12-28T04:20:36.020Z,88.72
2016-12-28T04:21:02.130Z,88.48
2016-12-28T04:21:28.248Z,88.48
2016-12-28T04:21:54.365Z,88.76
2016-12-28T04:22:20.469Z,88.48
2016-12-28T04:22:46.586Z,88.67
2016-12-28T04:23:12.689Z,88.2
2016-12-28T04:23:38.812Z,87.77
2016-12-28T04:24:04.924Z,88.57
2016-12-28T04:24:31.030Z,88.48
2016-12-28T04:24:57.157Z,87.82
2016-12-28T04:25:23.277Z,87.72
2016-12-28T04:25:49.380Z,87.91
2016-12-28T04:26:15.499Z,87.91
2016-12-28T04:26:41.616Z,87.91
2016-12-28T04:27:07.721Z,87.82
2016-12-28T04:27:33.829Z,87.82
2016-12-28T04:27:59.953Z,87.72
2016-12-28T04:28:26.054Z,87.82
2016-12-28T04:28:52.167Z,87.72
2016-12-28T04:29:18.272Z,87.62
2016-12-28T04:29:44.384Z,87.77
2016-12-28T04:30:10.507Z,88.01
2016-12-28T04:30:36.602Z,87.72
2016-12-28T04:31:02.722Z,87.72
2016-12-28T04:31:28.839Z,87.72
2016-12-28T04:31:54.949Z,87.62
2016-12-28T04:32:21.061Z,87.91
2016-12-28T04:32:47.182Z,87.62
2016-12-28T04:33:13.283Z,87.82
2016-12-28T04:33:39.388Z,87.82
2016-12-28T04:34:05.542Z,87.62
2016-12-28T04:34:31.653Z,87.82
2016-12-28T04:34:57.776Z,87.53
2016-12-28T04:35:23.881Z,87.87
2016-12-28T04:35:49.995Z,87.24
2016-12-28T04:36:16.114Z,87.34
2016-12-28T04:36:42.225Z,87.2
2016-12-28T04:37:08.330Z,87.3
2016-12-28T04:37:34.451Z,87.87
2016-12-28T04:38:00.561Z,87.68
2016-12-28T04:38:26.664Z,87.87
2016-12-28T04:38:52.785Z,87.96
2016-12-28T04:39:18.900Z,87.68
2016-12-28T04:39:45.003Z,88.43
2016-12-28T04:40:11.119Z,88.34
2016-12-28T04:40:37.241Z,88.53
2016-12-28T04:41:03.364Z,88.43
2016-12-28T04:41:29.478Z,88.53
2016-12-28T04:41:55.600Z,88.34
2016-12-28T04:42:21.704Z,88.53
2016-12-28T04:42:47.818Z,88.62
2016-12-28T04:43:13.935Z,88.72
2016-12-28T04:43:40.042Z,88.43
2016-12-28T04:44:06.146Z,88.53
2016-12-28T04:44:32.275Z,88.43
2016-12-28T04:44:58.386Z,88.72
2016-12-28T04:45:24.498Z,88.15
2016-12-28T04:45:50.600Z,88.34
2016-12-28T04:46:16.716Z,88.53
2016-12-28T04:46:42.837Z,88.62
2016-12-28T04:47:08.946Z,88.53
2016-12-28T04:47:35.048Z,88.34
2016-12-28T04:48:01.176Z,88.43
2016-12-28T04:48:27.299Z,88.53
2016-12-28T04:48:53.393Z,88.34
2016-12-28T04:49:19.512Z,88.43
2016-12-28T04:49:45.641Z,87.58
2016-12-28T04:50:11.730Z,88.34
2016-12-28T04:50:37.847Z,88.34
2016-12-28T04:51:03.950Z,88.43
2016-12-28T04:51:30.072Z,88.72
2016-12-28T04:51:56.188Z,88.34
2016-12-28T04:52:22.285Z,88.15
2016-12-28T04:52:48.411Z,88.15
2016-12-28T04:53:14.529Z,88.43
2016-12-28T04:53:40.636Z,88.15
2016-12-28T04:54:06.748Z,88.06
2016-12-28T04:54:32.866Z,88.34
2016-12-28T04:54:58.968Z,88.81
2016-12-28T04:55:25.114Z,88.43
2016-12-28T04:55:51.240Z,88.06
2016-12-28T04:56:17.342Z,88.62
2016-12-28T04:56:43.462Z,88.43
2016-12-28T04:57:09.566Z,87.87
2016-12-28T04:57:35.686Z,87.68
2016-12-28T04:58:01.809Z,87.87
2016-12-28T04:58:27.909Z,87.68
2016-12-28T04:58:54.023Z,87.87
2016-12-28T04:59:20.142Z,87.58
2016-12-28T04:59:46.247Z,87.68
2016-12-28T05:00:12.360Z,87.68
2016-12-28T05:00:38.481Z,87.49
2016-12-28T05:01:04.587Z,87.77
2016-12-28T05:01:30.684Z,87.58
2016-12-28T05:01:56.806Z,87.3
2016-12-28T05:02:22.923Z,87.49
2016-12-28T05:02:49.077Z,87.96
2016-12-28T05:03:15.178Z,87.87
2016-12-28T05:03:41.290Z,87.77
2016-12-28T05:04:07.408Z,87.3
2016-12-28T05:04:33.513Z,87.77
2016-12-28T05:04:59.616Z,87.68
2016-12-28T05:05:25.747Z,87.87
2016-12-28T05:05:51.860Z,87.68
2016-12-28T05:06:17.965Z,87.68
2016-12-28T05:06:44.087Z,87.49
2016-12-28T05:07:10.206Z,87.58
2016-12-28T05:07:36.319Z,88.53
2016-12-28T05:08:02.427Z,88.43
2016-12-28T05:08:28.526Z,88.62
2016-12-28T05:08:54.653Z,88.53
2016-12-28T05:09:20.756Z,88.53
2016-12-28T05:09:46.864Z,88.43
2016-12-28T05:10:12.983Z,88.62
2016-12-28T05:10:39.103Z,88.24
2016-12-28T05:11:05.204Z,88.53
2016-12-28T05:11:31.324Z,88.15
2016-12-28T05:11:57.445Z,88.43
2016-12-28T05:12:23.545Z,88.72
2016-12-28T05:12:49.659Z,88.34
2016-12-28T05:13:15.763Z,88.06
2016-12-28T05:13:41.891Z,88.34
2016-12-28T05:14:08.004Z,88.24
2016-12-28T05:14:34.108Z,88.06
2016-12-28T05:15:00.221Z,88.34
2016-12-28T05:15:26.342Z,88.43
2016-12-28T05:15:52.444Z,88.62
2016-12-28T05:16:18.557Z,88.62
2016-12-28T05:16:44.684Z,88.72
2016-12-28T05:17:10.788Z,88.53
2016-12-28T05:17:36.898Z,88.43
2016-12-28T05:18:03.018Z,88.24
2016-12-28T05:18:29.128Z,88.24
2016-12-28T05:18:55.249Z,87.96
2016-12-28T05:19:21.345Z,87.77
2016-12-28T05:19:47.462Z,87.68
2016-12-28T05:20:13.580Z,87.87
2016-12-28T05:20:39.687Z,87.58
2016-12-28T05:21:05.800Z,87.77
2016-12-28T05:21:31.921Z,87.96
2016-12-28T05:21:58.031Z,87.3
2016-12-28T05:22:24.131Z,87.3
2016-12-28T05:22:50.256Z,87.2
2016-12-28T05:23:16.369Z,87.49
2016-12-28T05:23:42.471Z,87.3
2016-12-28T05:24:08.597Z,87.49
2016-12-28T05:24:34.716Z,87.77
2016-12-28T05:25:00.826Z,87.68
2016-12-28T05:25:26.940Z,87.49
2016-12-28T05:25:53.061Z,87.39
2016-12-28T05:26:19.169Z,87.58
2016-12-28T05:26:45.284Z,87.87
2016-12-28T05:27:11.403Z,87.77
2016-12-28T05:27:37.511Z,87.3
2016-12-28T05:28:03.621Z,87.3
2016-12-28T05:28:29.747Z,87.53
2016-12-28T05:28:55.860Z,87.2
2016-12-28T05:29:21.968Z,87.39
2016-12-28T05:29:48.084Z,87.3
2016-12-28T05:30:14.194Z,87.49
2016-12-28T05:30:40.320Z,87.3
2016-12-28T05:31:06.422Z,87.87
2016-12-28T05:31:32.538Z,87.3
2016-12-28T05:31:58.653Z,88.06
2016-12-28T05:32:24.761Z,87.2
2016-12-28T05:32:50.868Z,87.49
2016-12-28T05:33:16.992Z,87.68
2016-12-28T05:33:43.101Z,87.58
2016-12-28T05:34:09.205Z,87.58
2016-12-28T05:34:35.321Z,87.87
2016-12-28T05:35:01.431Z,87.68
2016-12-28T05:35:27.547Z,87.2
2016-12-28T05:35:53.650Z,87.39
2016-12-28T05:36:19.748Z,87.3
2016-12-28T05:36:45.876Z,87.3
2016-12-28T05:37:11.988Z,87.49
2016-12-28T05:37:38.098Z,87.3